sensor_id;sensor_type;location;lat;lon;timestamp;P1;durP1;ratioP1;P2;durP2;ratioP2
47259;SDS011;32999;52.412;4.890;2022-12-29T00:01:57;4.03;;;2.45;;
47259;SDS011;32999;52.412;4.890;2022-12-29T00:07:18;3.40;;;2.42;;
47259;SDS011;32999;52.412;4.890;2022-12-29T00:12:31;3.25;;;2.42;;
47259;SDS011;32999;52.412;4.890;2022-12-29T00:17:46;4.93;;;2.60;;
47259;SDS011;32999;52.412;4.890;2022-12-29T00:22:50;3.08;;;2.10;;
47259;SDS011;32999;52.412;4.890;2022-12-29T00:28:09;4.32;;;1.80;;
47259;SDS011;32999;52.412;4.890;2022-12-29T00:33:45;3.97;;;2.00;;
47259;SDS011;32999;52.412;4.890;2022-12-29T00:39:19;2.80;;;1.80;;
47259;SDS011;32999;52.412;4.890;2022-12-29T00:44:49;4.18;;;1.75;;
47259;SDS011;32999;52.412;4.890;2022-12-29T00:49:50;1.63;;;1.00;;
47259;SDS011;32999;52.412;4.890;2022-12-29T00:54:53;2.45;;;1.20;;
47259;SDS011;32999;52.412;4.890;2022-12-29T00:59:56;4.53;;;1.27;;
47259;SDS011;32999;52.412;4.890;2022-12-29T01:04:59;3.60;;;1.20;;
47259;SDS011;32999;52.412;4.890;2022-12-29T01:10:09;3.20;;;1.52;;
47259;SDS011;32999;52.412;4.890;2022-12-29T01:15:14;2.60;;;0.88;;
47259;SDS011;32999;52.412;4.890;2022-12-29T01:20:51;2.33;;;1.00;;
47259;SDS011;32999;52.412;4.890;2022-12-29T01:26:38;3.38;;;1.08;;
47259;SDS011;32999;52.412;4.890;2022-12-29T01:31:40;3.72;;;1.00;;
47259;SDS011;32999;52.412;4.890;2022-12-29T01:36:50;1.02;;;0.75;;
47259;SDS011;32999;52.412;4.890;2022-12-29T01:46:59;2.38;;;0.80;;
47259;SDS011;32999;52.412;4.890;2022-12-29T01:52:06;5.15;;;1.08;;
47259;SDS011;32999;52.412;4.890;2022-12-29T01:57:15;4.35;;;1.75;;
47259;SDS011;32999;52.412;4.890;2022-12-29T02:02:26;0.65;;;0.60;;
47259;SDS011;32999;52.412;4.890;2022-12-29T02:07:30;1.13;;;0.60;;
47259;SDS011;32999;52.412;4.890;2022-12-29T02:12:51;4.40;;;1.25;;
47259;SDS011;32999;52.412;4.890;2022-12-29T02:17:59;4.32;;;0.80;;
47259;SDS011;32999;52.412;4.890;2022-12-29T02:23:21;4.05;;;0.73;;
47259;SDS011;32999;52.412;4.890;2022-12-29T02:35:09;4.90;;;0.70;;
47259;SDS011;32999;52.412;4.890;2022-12-29T02:40:24;5.43;;;1.08;;
47259;SDS011;32999;52.412;4.890;2022-12-29T02:45:36;8.35;;;1.13;;
47259;SDS011;32999;52.412;4.890;2022-12-29T02:50:47;4.53;;;0.70;;
47259;SDS011;32999;52.412;4.890;2022-12-29T02:55:57;4.78;;;0.73;;
47259;SDS011;32999;52.412;4.890;2022-12-29T03:01:05;2.50;;;0.47;;
47259;SDS011;32999;52.412;4.890;2022-12-29T03:06:29;4.90;;;0.88;;
47259;SDS011;32999;52.412;4.890;2022-12-29T03:11:38;5.50;;;0.68;;
47259;SDS011;32999;52.412;4.890;2022-12-29T03:17:07;8.25;;;1.00;;
47259;SDS011;32999;52.412;4.890;2022-12-29T03:22:17;2.35;;;0.55;;
47259;SDS011;32999;52.412;4.890;2022-12-29T03:27:31;4.32;;;1.08;;
47259;SDS011;32999;52.412;4.890;2022-12-29T03:32:39;2.83;;;0.80;;
47259;SDS011;32999;52.412;4.890;2022-12-29T03:37:50;13.15;;;1.33;;
47259;SDS011;32999;52.412;4.890;2022-12-29T03:43:09;5.28;;;1.15;;
47259;SDS011;32999;52.412;4.890;2022-12-29T03:48:14;7.45;;;1.30;;
47259;SDS011;32999;52.412;4.890;2022-12-29T03:53:34;8.20;;;1.45;;
47259;SDS011;32999;52.412;4.890;2022-12-29T03:58:36;7.10;;;0.98;;
47259;SDS011;32999;52.412;4.890;2022-12-29T04:03:38;6.72;;;1.60;;
47259;SDS011;32999;52.412;4.890;2022-12-29T04:08:41;10.35;;;0.98;;
47259;SDS011;32999;52.412;4.890;2022-12-29T04:13:43;10.43;;;1.80;;
47259;SDS011;32999;52.412;4.890;2022-12-29T04:18:46;11.52;;;1.45;;
47259;SDS011;32999;52.412;4.890;2022-12-29T04:23:54;20.77;;;2.28;;
47259;SDS011;32999;52.412;4.890;2022-12-29T04:28:56;15.43;;;3.10;;
47259;SDS011;32999;52.412;4.890;2022-12-29T04:33:59;9.27;;;1.20;;
47259;SDS011;32999;52.412;4.890;2022-12-29T04:39:05;9.32;;;1.42;;
47259;SDS011;32999;52.412;4.890;2022-12-29T04:44:11;12.68;;;1.42;;
47259;SDS011;32999;52.412;4.890;2022-12-29T04:49:23;12.23;;;2.10;;
47259;SDS011;32999;52.412;4.890;2022-12-29T04:54:26;14.50;;;1.90;;
47259;SDS011;32999;52.412;4.890;2022-12-29T04:59:28;12.27;;;1.63;;
47259;SDS011;32999;52.412;4.890;2022-12-29T05:04:34;12.95;;;2.08;;
47259;SDS011;32999;52.412;4.890;2022-12-29T05:09:59;10.60;;;1.67;;
47259;SDS011;32999;52.412;4.890;2022-12-29T05:15:01;14.85;;;2.05;;
47259;SDS011;32999;52.412;4.890;2022-12-29T05:20:03;16.20;;;1.67;;
47259;SDS011;32999;52.412;4.890;2022-12-29T05:25:08;9.18;;;1.27;;
47259;SDS011;32999;52.412;4.890;2022-12-29T05:30:10;10.98;;;1.67;;
47259;SDS011;32999;52.412;4.890;2022-12-29T05:35:13;17.38;;;1.50;;
47259;SDS011;32999;52.412;4.890;2022-12-29T05:40:20;9.65;;;1.42;;
47259;SDS011;32999;52.412;4.890;2022-12-29T05:45:25;8.68;;;1.45;;
47259;SDS011;32999;52.412;4.890;2022-12-29T05:50:46;11.23;;;1.50;;
47259;SDS011;32999;52.412;4.890;2022-12-29T05:56:34;16.02;;;1.58;;
47259;SDS011;32999;52.412;4.890;2022-12-29T06:01:36;11.27;;;1.42;;
47259;SDS011;32999;52.412;4.890;2022-12-29T06:06:38;13.18;;;1.50;;
47259;SDS011;32999;52.412;4.890;2022-12-29T06:11:41;10.48;;;1.50;;
47259;SDS011;32999;52.412;4.890;2022-12-29T06:16:43;12.15;;;2.53;;
47259;SDS011;32999;52.412;4.890;2022-12-29T06:21:45;12.63;;;2.05;;
47259;SDS011;32999;52.412;4.890;2022-12-29T06:26:48;13.57;;;2.15;;
47259;SDS011;32999;52.412;4.890;2022-12-29T06:31:50;14.35;;;1.45;;
47259;SDS011;32999;52.412;4.890;2022-12-29T06:36:56;13.43;;;1.48;;
47259;SDS011;32999;52.412;4.890;2022-12-29T06:53:46;17.88;;;3.42;;
47259;SDS011;32999;52.412;4.890;2022-12-29T06:58:53;17.25;;;1.98;;
47259;SDS011;32999;52.412;4.890;2022-12-29T07:03:55;17.60;;;1.92;;
47259;SDS011;32999;52.412;4.890;2022-12-29T07:08:57;19.30;;;3.05;;
47259;SDS011;32999;52.412;4.890;2022-12-29T07:14:00;18.38;;;2.38;;
47259;SDS011;32999;52.412;4.890;2022-12-29T07:19:03;16.70;;;2.92;;
47259;SDS011;32999;52.412;4.890;2022-12-29T07:24:05;25.63;;;4.50;;
47259;SDS011;32999;52.412;4.890;2022-12-29T07:29:12;29.90;;;4.47;;
47259;SDS011;32999;52.412;4.890;2022-12-29T07:34:13;24.77;;;3.33;;
47259;SDS011;32999;52.412;4.890;2022-12-29T07:39:15;20.27;;;3.05;;
47259;SDS011;32999;52.412;4.890;2022-12-29T07:44:18;21.92;;;3.35;;
47259;SDS011;32999;52.412;4.890;2022-12-29T07:49:20;19.05;;;2.20;;
47259;SDS011;32999;52.412;4.890;2022-12-29T07:54:22;19.08;;;2.25;;
47259;SDS011;32999;52.412;4.890;2022-12-29T07:59:25;15.27;;;2.65;;
47259;SDS011;32999;52.412;4.890;2022-12-29T08:04:26;16.65;;;2.03;;
47259;SDS011;32999;52.412;4.890;2022-12-29T08:09:28;15.90;;;1.98;;
47259;SDS011;32999;52.412;4.890;2022-12-29T08:14:36;13.70;;;2.00;;
47259;SDS011;32999;52.412;4.890;2022-12-29T08:19:40;14.07;;;2.15;;
47259;SDS011;32999;52.412;4.890;2022-12-29T08:24:42;11.85;;;1.50;;
47259;SDS011;32999;52.412;4.890;2022-12-29T08:29:45;17.83;;;3.08;;
47259;SDS011;32999;52.412;4.890;2022-12-29T08:34:47;19.08;;;2.28;;
47259;SDS011;32999;52.412;4.890;2022-12-29T08:39:51;19.45;;;3.58;;
47259;SDS011;32999;52.412;4.890;2022-12-29T08:44:55;16.48;;;3.30;;
47259;SDS011;32999;52.412;4.890;2022-12-29T08:49:58;12.40;;;1.92;;
47259;SDS011;32999;52.412;4.890;2022-12-29T08:54:59;25.42;;;3.80;;
47259;SDS011;32999;52.412;4.890;2022-12-29T09:00:03;15.60;;;2.05;;
47259;SDS011;32999;52.412;4.890;2022-12-29T09:05:06;19.48;;;2.58;;
47259;SDS011;32999;52.412;4.890;2022-12-29T09:10:08;17.75;;;2.75;;
47259;SDS011;32999;52.412;4.890;2022-12-29T09:15:11;16.13;;;1.88;;
47259;SDS011;32999;52.412;4.890;2022-12-29T09:20:14;16.45;;;1.83;;
47259;SDS011;32999;52.412;4.890;2022-12-29T09:25:17;21.23;;;2.53;;
47259;SDS011;32999;52.412;4.890;2022-12-29T09:30:25;18.00;;;2.10;;
47259;SDS011;32999;52.412;4.890;2022-12-29T09:35:27;15.55;;;2.20;;
47259;SDS011;32999;52.412;4.890;2022-12-29T09:40:29;18.17;;;2.63;;
47259;SDS011;32999;52.412;4.890;2022-12-29T09:45:35;22.65;;;2.70;;
47259;SDS011;32999;52.412;4.890;2022-12-29T09:50:43;26.25;;;2.92;;
47259;SDS011;32999;52.412;4.890;2022-12-29T09:55:50;24.90;;;3.60;;
47259;SDS011;32999;52.412;4.890;2022-12-29T10:00:58;25.27;;;3.75;;
47259;SDS011;32999;52.412;4.890;2022-12-29T10:06:04;28.38;;;3.42;;
47259;SDS011;32999;52.412;4.890;2022-12-29T10:11:15;36.72;;;3.90;;
47259;SDS011;32999;52.412;4.890;2022-12-29T10:16:32;31.45;;;5.15;;
47259;SDS011;32999;52.412;4.890;2022-12-29T10:21:44;21.67;;;4.40;;
47259;SDS011;32999;52.412;4.890;2022-12-29T10:26:58;31.67;;;4.72;;
47259;SDS011;32999;52.412;4.890;2022-12-29T10:32:02;30.75;;;3.50;;
47259;SDS011;32999;52.412;4.890;2022-12-29T10:37:09;38.30;;;7.47;;
47259;SDS011;32999;52.412;4.890;2022-12-29T10:42:24;35.15;;;3.67;;
47259;SDS011;32999;52.412;4.890;2022-12-29T10:47:31;39.53;;;5.50;;
47259;SDS011;32999;52.412;4.890;2022-12-29T10:52:36;33.13;;;3.97;;
47259;SDS011;32999;52.412;4.890;2022-12-29T10:57:40;24.07;;;3.23;;
47259;SDS011;32999;52.412;4.890;2022-12-29T11:02:50;27.15;;;4.13;;
47259;SDS011;32999;52.412;4.890;2022-12-29T11:08:04;29.90;;;4.53;;
47259;SDS011;32999;52.412;4.890;2022-12-29T11:13:12;32.53;;;6.15;;
47259;SDS011;32999;52.412;4.890;2022-12-29T11:18:21;19.25;;;2.85;;
47259;SDS011;32999;52.412;4.890;2022-12-29T11:23:26;23.45;;;3.28;;
47259;SDS011;32999;52.412;4.890;2022-12-29T11:28:37;18.75;;;2.72;;
47259;SDS011;32999;52.412;4.890;2022-12-29T11:34:06;22.73;;;2.75;;
47259;SDS011;32999;52.412;4.890;2022-12-29T11:39:16;21.08;;;2.70;;
47259;SDS011;32999;52.412;4.890;2022-12-29T11:44:27;36.45;;;4.90;;
47259;SDS011;32999;52.412;4.890;2022-12-29T11:49:38;29.35;;;4.40;;
47259;SDS011;32999;52.412;4.890;2022-12-29T11:54:40;24.13;;;3.35;;
47259;SDS011;32999;52.412;4.890;2022-12-29T11:59:44;22.63;;;2.80;;
47259;SDS011;32999;52.412;4.890;2022-12-29T12:04:53;23.40;;;3.42;;
47259;SDS011;32999;52.412;4.890;2022-12-29T12:10:01;11.50;;;1.65;;
47259;SDS011;32999;52.412;4.890;2022-12-29T12:15:08;12.23;;;2.03;;
47259;SDS011;32999;52.412;4.890;2022-12-29T12:20:19;11.93;;;1.83;;
47259;SDS011;32999;52.412;4.890;2022-12-29T12:25:24;17.63;;;2.22;;
47259;SDS011;32999;52.412;4.890;2022-12-29T12:30:33;10.52;;;1.60;;
47259;SDS011;32999;52.412;4.890;2022-12-29T12:35:42;21.38;;;2.25;;
47259;SDS011;32999;52.412;4.890;2022-12-29T12:40:54;14.45;;;1.75;;
47259;SDS011;32999;52.412;4.890;2022-12-29T12:46:06;25.25;;;3.97;;
47259;SDS011;32999;52.412;4.890;2022-12-29T12:51:23;9.48;;;1.27;;
47259;SDS011;32999;52.412;4.890;2022-12-29T12:56:44;12.65;;;1.75;;
47259;SDS011;32999;52.412;4.890;2022-12-29T13:01:55;9.27;;;1.80;;
47259;SDS011;32999;52.412;4.890;2022-12-29T13:07:12;8.90;;;1.40;;
47259;SDS011;32999;52.412;4.890;2022-12-29T13:12:24;10.77;;;2.67;;
47259;SDS011;32999;52.412;4.890;2022-12-29T13:17:42;12.55;;;1.40;;
47259;SDS011;32999;52.412;4.890;2022-12-29T13:22:52;17.45;;;2.17;;
47259;SDS011;32999;52.412;4.890;2022-12-29T13:27:59;10.15;;;3.15;;
47259;SDS011;32999;52.412;4.890;2022-12-29T13:33:06;17.35;;;2.20;;
47259;SDS011;32999;52.412;4.890;2022-12-29T13:38:20;14.00;;;1.52;;
47259;SDS011;32999;52.412;4.890;2022-12-29T13:43:27;11.98;;;2.00;;
47259;SDS011;32999;52.412;4.890;2022-12-29T13:53:43;13.50;;;1.50;;
47259;SDS011;32999;52.412;4.890;2022-12-29T13:58:57;11.93;;;1.80;;
47259;SDS011;32999;52.412;4.890;2022-12-29T14:04:09;12.27;;;2.55;;
47259;SDS011;32999;52.412;4.890;2022-12-29T14:14:47;9.27;;;1.30;;
47259;SDS011;32999;52.412;4.890;2022-12-29T14:19:51;14.65;;;2.42;;
47259;SDS011;32999;52.412;4.890;2022-12-29T14:24:56;18.17;;;2.45;;
47259;SDS011;32999;52.412;4.890;2022-12-29T14:29:58;17.48;;;2.42;;
47259;SDS011;32999;52.412;4.890;2022-12-29T14:35:00;9.48;;;1.75;;
47259;SDS011;32999;52.412;4.890;2022-12-29T14:40:24;10.93;;;1.90;;
47259;SDS011;32999;52.412;4.890;2022-12-29T14:50:33;13.57;;;3.35;;
47259;SDS011;32999;52.412;4.890;2022-12-29T14:55:41;16.52;;;3.70;;
47259;SDS011;32999;52.412;4.890;2022-12-29T15:00:46;12.85;;;2.13;;
47259;SDS011;32999;52.412;4.890;2022-12-29T15:05:49;14.52;;;1.73;;
47259;SDS011;32999;52.412;4.890;2022-12-29T15:10:55;10.47;;;1.50;;
47259;SDS011;32999;52.412;4.890;2022-12-29T15:16:00;14.65;;;1.67;;
47259;SDS011;32999;52.412;4.890;2022-12-29T15:21:03;12.32;;;2.22;;
47259;SDS011;32999;52.412;4.890;2022-12-29T15:26:08;23.52;;;2.42;;
47259;SDS011;32999;52.412;4.890;2022-12-29T15:31:12;15.23;;;2.13;;
47259;SDS011;32999;52.412;4.890;2022-12-29T15:36:18;22.63;;;2.35;;
47259;SDS011;32999;52.412;4.890;2022-12-29T15:41:25;14.75;;;1.73;;
47259;SDS011;32999;52.412;4.890;2022-12-29T15:46:33;19.20;;;2.50;;
47259;SDS011;32999;52.412;4.890;2022-12-29T15:51:38;19.80;;;2.75;;
47259;SDS011;32999;52.412;4.890;2022-12-29T16:02:22;13.65;;;2.53;;
47259;SDS011;32999;52.412;4.890;2022-12-29T16:07:26;21.02;;;3.85;;
47259;SDS011;32999;52.412;4.890;2022-12-29T16:17:36;20.45;;;3.33;;
47259;SDS011;32999;52.412;4.890;2022-12-29T16:22:51;19.80;;;2.35;;
47259;SDS011;32999;52.412;4.890;2022-12-29T16:28:02;17.98;;;3.17;;
47259;SDS011;32999;52.412;4.890;2022-12-29T16:33:32;23.40;;;4.00;;
47259;SDS011;32999;52.412;4.890;2022-12-29T16:38:41;16.35;;;3.05;;
47259;SDS011;32999;52.412;4.890;2022-12-29T16:43:44;14.93;;;1.92;;
47259;SDS011;32999;52.412;4.890;2022-12-29T16:49:12;19.52;;;2.05;;
47259;SDS011;32999;52.412;4.890;2022-12-29T16:54:24;22.00;;;4.93;;
47259;SDS011;32999;52.412;4.890;2022-12-29T16:59:46;17.05;;;2.38;;
47259;SDS011;32999;52.412;4.890;2022-12-29T17:10:57;10.52;;;2.42;;
47259;SDS011;32999;52.412;4.890;2022-12-29T17:28:17;13.75;;;2.65;;
47259;SDS011;32999;52.412;4.890;2022-12-29T17:33:23;17.63;;;4.20;;
47259;SDS011;32999;52.412;4.890;2022-12-29T17:56:22;21.05;;;3.35;;
47259;SDS011;32999;52.412;4.890;2022-12-29T18:01:23;12.85;;;2.25;;
47259;SDS011;32999;52.412;4.890;2022-12-29T18:06:26;24.80;;;4.22;;
47259;SDS011;32999;52.412;4.890;2022-12-29T18:18:33;18.98;;;2.22;;
47259;SDS011;32999;52.412;4.890;2022-12-29T18:23:35;16.15;;;2.67;;
47259;SDS011;32999;52.412;4.890;2022-12-29T18:28:39;10.70;;;3.13;;
47259;SDS011;32999;52.412;4.890;2022-12-29T18:33:42;30.63;;;2.65;;
47259;SDS011;32999;52.412;4.890;2022-12-29T18:38:44;16.15;;;2.13;;
47259;SDS011;32999;52.412;4.890;2022-12-29T18:43:55;14.57;;;2.42;;
47259;SDS011;32999;52.412;4.890;2022-12-29T18:49:02;22.05;;;5.30;;
47259;SDS011;32999;52.412;4.890;2022-12-29T18:54:04;19.58;;;2.17;;
47259;SDS011;32999;52.412;4.890;2022-12-29T18:59:09;18.02;;;3.03;;
47259;SDS011;32999;52.412;4.890;2022-12-29T20:17:47;24.23;;;3.10;;
47259;SDS011;32999;52.412;4.890;2022-12-29T20:22:52;13.50;;;2.15;;
47259;SDS011;32999;52.412;4.890;2022-12-29T20:28:09;12.77;;;2.92;;
47259;SDS011;32999;52.412;4.890;2022-12-29T20:33:27;16.42;;;2.10;;
47259;SDS011;32999;52.412;4.890;2022-12-29T20:50:49;25.60;;;3.72;;
47259;SDS011;32999;52.412;4.890;2022-12-29T20:55:51;18.10;;;3.22;;
47259;SDS011;32999;52.412;4.890;2022-12-29T21:00:53;18.90;;;2.72;;
47259;SDS011;32999;52.412;4.890;2022-12-29T21:06:12;21.85;;;3.00;;
47259;SDS011;32999;52.412;4.890;2022-12-29T21:11:15;14.40;;;2.63;;
47259;SDS011;32999;52.412;4.890;2022-12-29T21:16:17;20.60;;;3.33;;
47259;SDS011;32999;52.412;4.890;2022-12-29T21:21:21;22.20;;;2.20;;
47259;SDS011;32999;52.412;4.890;2022-12-29T21:26:25;17.55;;;3.80;;
47259;SDS011;32999;52.412;4.890;2022-12-29T21:31:27;16.35;;;2.80;;
47259;SDS011;32999;52.412;4.890;2022-12-29T21:36:38;22.45;;;4.18;;
47259;SDS011;32999;52.412;4.890;2022-12-29T21:42:28;23.35;;;4.85;;
47259;SDS011;32999;52.412;4.890;2022-12-29T21:48:03;16.80;;;3.67;;
47259;SDS011;32999;52.412;4.890;2022-12-29T21:53:32;20.20;;;2.60;;
47259;SDS011;32999;52.412;4.890;2022-12-29T21:58:54;24.10;;;4.82;;
47259;SDS011;32999;52.412;4.890;2022-12-29T22:16:06;21.48;;;3.90;;
47259;SDS011;32999;52.412;4.890;2022-12-29T22:40:24;14.27;;;2.80;;
47259;SDS011;32999;52.412;4.890;2022-12-29T22:57:52;14.75;;;2.55;;
47259;SDS011;32999;52.412;4.890;2022-12-29T23:02:53;16.77;;;1.67;;
47259;SDS011;32999;52.412;4.890;2022-12-29T23:07:55;12.50;;;1.92;;
47259;SDS011;32999;52.412;4.890;2022-12-29T23:12:58;25.95;;;3.35;;
47259;SDS011;32999;52.412;4.890;2022-12-29T23:18:00;21.23;;;2.92;;
47259;SDS011;32999;52.412;4.890;2022-12-29T23:23:02;28.88;;;3.10;;
47259;SDS011;32999;52.412;4.890;2022-12-29T23:28:06;26.95;;;2.35;;
47259;SDS011;32999;52.412;4.890;2022-12-29T23:38:11;18.45;;;2.17;;
47259;SDS011;32999;52.412;4.890;2022-12-29T23:43:14;24.00;;;2.45;;
47259;SDS011;32999;52.412;4.890;2022-12-29T23:48:17;19.50;;;2.35;;
47259;SDS011;32999;52.412;4.890;2022-12-29T23:53:18;16.00;;;1.98;;
47259;SDS011;32999;52.412;4.890;2022-12-29T23:58:21;27.67;;;3.95;;
